createdAt,value
2018-08-14T00:01:34.559Z,20.80
2018-08-14T00:05:09.029Z,20.80
2018-08-14T00:08:42.265Z,20.80
2018-08-14T00:12:15.550Z,20.90
2018-08-14T00:15:49.170Z,20.90
2018-08-14T00:19:22.449Z,20.90
2018-08-14T00:22:55.721Z,21.00
2018-08-14T00:26:28.969Z,21.00
2018-08-14T00:30:02.310Z,21.10
2018-08-14T00:33:35.578Z,21.00
2018-08-14T00:37:08.852Z,20.90
2018-08-14T00:40:42.110Z,20.90
2018-08-14T00:44:15.365Z,20.90
2018-08-14T00:47:48.945Z,20.90
2018-08-14T00:51:22.188Z,20.90
2018-08-14T00:54:55.437Z,20.90
2018-08-14T00:58:28.705Z,20.80
2018-08-14T01:02:02.070Z,20.80
2018-08-14T01:05:35.329Z,20.70
2018-08-14T01:09:09.135Z,20.70
2018-08-14T01:12:46.589Z,20.70
2018-08-14T01:16:19.861Z,20.60
2018-08-14T01:19:53.116Z,20.50
2018-08-14T01:23:26.361Z,20.50
2018-08-14T01:26:59.610Z,20.50
2018-08-14T01:30:32.881Z,20.40
2018-08-14T01:34:06.868Z,20.30
2018-08-14T01:37:40.477Z,20.30
2018-08-14T01:41:13.746Z,20.30
2018-08-14T01:44:47.039Z,20.30
2018-08-14T01:48:20.380Z,20.30
2018-08-14T01:51:53.589Z,20.30
2018-08-14T01:55:26.839Z,20.20
2018-08-14T01:59:00.082Z,20.20
2018-08-14T02:02:33.324Z,20.10
2018-08-14T02:06:06.588Z,20.00
2018-08-14T02:09:42.857Z,20.00
2018-08-14T02:13:16.125Z,20.00
2018-08-14T02:16:49.402Z,19.90
2018-08-14T02:20:23.778Z,19.90
2018-08-14T02:23:57.049Z,19.80
2018-08-14T02:27:30.309Z,19.80
2018-08-14T02:31:03.542Z,19.80
2018-08-14T02:34:36.815Z,19.80
2018-08-14T02:38:10.085Z,19.70
2018-08-14T02:41:43.335Z,19.70
2018-08-14T02:45:16.606Z,19.70
2018-08-14T02:48:49.907Z,19.60
2018-08-14T02:52:23.172Z,19.50
2018-08-14T02:55:56.454Z,19.50
2018-08-14T02:59:29.697Z,19.60
2018-08-14T03:03:02.972Z,19.60
2018-08-14T03:06:36.247Z,19.70
2018-08-14T03:10:11.424Z,19.60
2018-08-14T03:13:44.698Z,19.60
2018-08-14T03:17:17.948Z,19.60
2018-08-14T03:20:51.207Z,19.60
2018-08-14T03:24:24.466Z,19.60
2018-08-14T03:27:57.742Z,19.60
2018-08-14T03:31:31.005Z,19.60
2018-08-14T03:35:04.937Z,19.50
2018-08-14T03:38:38.181Z,19.60
2018-08-14T03:42:11.426Z,19.60
2018-08-14T03:45:44.697Z,19.60
2018-08-14T03:49:17.933Z,19.60
2018-08-14T03:52:51.208Z,19.60
2018-08-14T03:56:24.472Z,19.60
2018-08-14T03:59:57.713Z,19.60
2018-08-14T04:03:31.062Z,19.60
2018-08-14T04:07:04.300Z,19.60
2018-08-14T04:10:37.542Z,19.60
2018-08-14T04:14:10.810Z,19.80
2018-08-14T04:17:44.079Z,19.80
2018-08-14T04:21:17.346Z,19.80
2018-08-14T04:24:50.584Z,19.90
2018-08-14T04:28:23.849Z,19.90
2018-08-14T04:31:57.097Z,20.00
2018-08-14T04:35:30.338Z,20.00
2018-08-14T04:39:03.836Z,20.10
2018-08-14T04:42:37.102Z,20.10
2018-08-14T04:46:10.409Z,20.10
2018-08-14T04:49:43.660Z,20.10
2018-08-14T04:53:16.928Z,20.10
2018-08-14T04:56:50.194Z,20.10
2018-08-14T05:00:23.441Z,20.10
2018-08-14T05:03:56.685Z,20.10
2018-08-14T05:07:29.934Z,20.10
2018-08-14T05:11:03.196Z,20.10
2018-08-14T05:14:36.465Z,20.10
2018-08-14T05:18:09.701Z,20.10
2018-08-14T05:21:42.965Z,20.00
2018-08-14T05:25:16.212Z,19.90
2018-08-14T05:28:49.502Z,19.80
2018-08-14T05:32:22.749Z,19.80
2018-08-14T05:35:56.006Z,19.80
2018-08-14T05:39:29.244Z,19.70
2018-08-14T05:43:02.490Z,19.70
2018-08-14T05:46:35.740Z,19.60
2018-08-14T05:50:10.974Z,19.60
2018-08-14T05:53:44.245Z,19.70
2018-08-14T05:57:17.502Z,19.80
2018-08-14T06:00:51.090Z,19.80
2018-08-14T06:04:24.346Z,19.80
2018-08-14T06:07:57.605Z,19.80
2018-08-14T06:11:30.864Z,19.70
2018-08-14T06:15:04.879Z,19.70
2018-08-14T06:18:38.146Z,19.70
2018-08-14T06:22:11.388Z,19.80
2018-08-14T06:25:44.631Z,19.90
2018-08-14T06:29:17.876Z,19.90
2018-08-14T06:32:51.501Z,19.90
2018-08-14T06:36:24.781Z,19.90
2018-08-14T06:39:58.045Z,20.00
2018-08-14T06:43:31.299Z,20.10
2018-08-14T06:47:04.581Z,20.00
2018-08-14T06:50:37.852Z,20.00
2018-08-14T06:54:11.136Z,20.00
2018-08-14T06:57:45.190Z,20.20
2018-08-14T07:01:18.444Z,20.30
2018-08-14T07:04:51.685Z,20.50
2018-08-14T07:08:24.945Z,20.50
2018-08-14T07:11:58.180Z,20.60
2018-08-14T07:15:31.414Z,20.70
2018-08-14T07:19:04.667Z,20.60
2018-08-14T07:22:37.921Z,20.50
2018-08-14T07:26:11.208Z,20.50
2018-08-14T07:29:44.449Z,20.70
2018-08-14T07:33:17.733Z,20.90
2018-08-14T07:36:51.979Z,21.00
2018-08-14T07:40:25.229Z,21.10
2018-08-14T07:43:59.193Z,21.30
2018-08-14T07:47:32.496Z,21.50
2018-08-14T07:51:05.947Z,21.50
2018-08-14T07:54:39.193Z,21.50
2018-08-14T07:58:12.449Z,21.50
2018-08-14T08:01:45.733Z,21.50
2018-08-14T08:05:19.410Z,21.50
2018-08-14T08:08:52.651Z,21.50
2018-08-14T08:12:25.918Z,21.60
2018-08-14T08:15:59.160Z,21.80
2018-08-14T08:19:32.402Z,21.90
2018-08-14T08:23:06.662Z,21.80
2018-08-14T08:26:39.898Z,21.80
2018-08-14T08:30:13.176Z,21.70
2018-08-14T08:33:46.430Z,21.80
2018-08-14T08:41:15.221Z,22.20
2018-08-14T08:44:48.469Z,22.40
2018-08-14T08:48:22.780Z,22.60
2018-08-14T08:51:56.002Z,22.80
2018-08-14T08:55:29.266Z,22.80
2018-08-14T08:59:02.518Z,22.80
2018-08-14T09:02:35.772Z,22.80
2018-08-14T09:06:09.025Z,22.80
2018-08-14T09:09:42.271Z,22.80
2018-08-14T09:13:16.396Z,22.90
2018-08-14T09:16:49.629Z,23.00
2018-08-14T09:20:22.887Z,22.90
2018-08-14T09:23:56.149Z,22.90
2018-08-14T09:27:29.410Z,22.70
2018-08-14T09:31:02.649Z,22.60
2018-08-14T09:34:35.902Z,22.50
2018-08-14T09:38:09.162Z,22.60
2018-08-14T09:41:42.804Z,23.00
2018-08-14T09:45:16.097Z,23.20
2018-08-14T09:48:49.400Z,23.30
2018-08-14T09:52:22.676Z,23.30
2018-08-14T09:55:55.902Z,23.30
2018-08-14T09:59:29.145Z,23.30
2018-08-14T10:03:12.558Z,23.30
2018-08-14T10:06:51.221Z,23.60
2018-08-14T10:10:24.464Z,24.00
2018-08-14T10:13:57.740Z,24.40
2018-08-14T10:17:30.985Z,24.40
2018-08-14T10:21:04.230Z,24.30
2018-08-14T10:24:37.489Z,24.20
2018-08-14T10:28:12.425Z,24.30
2018-08-14T10:31:45.672Z,24.40
2018-08-14T10:35:18.940Z,24.50
2018-08-14T10:38:52.210Z,24.60
2018-08-14T10:42:29.500Z,24.60
2018-08-14T10:46:02.818Z,24.60
2018-08-14T10:49:36.065Z,24.80
2018-08-14T10:53:09.337Z,24.80
2018-08-14T10:56:42.629Z,24.90
2018-08-14T11:00:19.106Z,24.90
2018-08-14T11:03:52.498Z,24.90
2018-08-14T11:07:25.757Z,24.80
2018-08-14T11:11:04.269Z,24.70
2018-08-14T11:14:37.550Z,24.70
2018-08-14T11:18:10.811Z,24.80
2018-08-14T11:21:44.064Z,24.70
2018-08-14T11:25:17.494Z,24.50
2018-08-14T11:28:50.729Z,24.50
2018-08-14T11:32:24.003Z,24.60
2018-08-14T11:36:02.739Z,24.70
2018-08-14T11:39:36.004Z,24.80
2018-08-14T11:43:09.294Z,24.80
2018-08-14T11:46:42.567Z,24.80
2018-08-14T11:50:17.171Z,24.80
2018-08-14T11:53:50.431Z,24.80
2018-08-14T11:57:23.704Z,24.90
2018-08-14T12:00:56.950Z,24.80
2018-08-14T12:04:30.198Z,24.60
2018-08-14T12:08:03.472Z,24.60
2018-08-14T12:11:37.056Z,24.50
2018-08-14T12:15:11.617Z,24.40
2018-08-14T12:18:44.865Z,24.50
2018-08-14T12:22:18.149Z,24.80
2018-08-14T12:25:51.384Z,24.90
2018-08-14T12:29:24.628Z,24.80
2018-08-14T12:32:57.884Z,24.70
2018-08-14T12:36:31.150Z,24.50
2018-08-14T12:40:05.928Z,24.30
2018-08-14T12:43:39.200Z,24.10
2018-08-14T12:47:12.469Z,24.10
2018-08-14T12:50:45.720Z,24.10
2018-08-14T12:54:19.111Z,24.20
2018-08-14T12:57:52.360Z,24.50
2018-08-14T13:01:25.629Z,24.80
2018-08-14T13:04:58.856Z,25.00
2018-08-14T13:08:32.133Z,25.10
2018-08-14T13:12:05.449Z,25.30
2018-08-14T13:15:38.701Z,25.30
2018-08-14T13:19:12.512Z,25.30
2018-08-14T13:22:46.058Z,25.20
2018-08-14T13:26:19.466Z,25.00
2018-08-14T13:29:52.720Z,25.00
2018-08-14T13:33:26.211Z,25.00
2018-08-14T13:36:59.474Z,25.10
2018-08-14T13:40:32.848Z,25.20
2018-08-14T13:44:06.117Z,25.30
2018-08-14T13:47:39.624Z,25.40
2018-08-14T13:51:12.881Z,25.70
2018-08-14T13:54:47.213Z,26.00
2018-08-14T13:58:20.475Z,26.20
2018-08-14T14:01:53.754Z,26.40
2018-08-14T14:05:27.020Z,26.40
2018-08-14T14:09:00.327Z,26.30
2018-08-14T14:12:33.586Z,26.20
2018-08-14T14:16:06.866Z,25.90
2018-08-14T14:19:40.120Z,25.70
2018-08-14T14:23:13.369Z,25.50
2018-08-14T14:26:46.608Z,25.20
2018-08-14T14:30:20.229Z,24.90
2018-08-14T14:33:53.473Z,24.80
2018-08-14T14:37:26.815Z,24.90
2018-08-14T14:40:59.994Z,24.90
2018-08-14T14:44:33.220Z,25.00
2018-08-14T14:48:06.558Z,25.00
2018-08-14T14:51:39.866Z,25.00
2018-08-14T14:55:17.539Z,25.00
2018-08-14T14:58:50.998Z,24.90
2018-08-14T15:02:24.267Z,25.00
2018-08-14T15:05:57.534Z,24.90
2018-08-14T15:09:30.776Z,24.90
2018-08-14T15:13:04.025Z,24.90
2018-08-14T15:16:37.325Z,24.90
2018-08-14T15:20:15.957Z,24.80
2018-08-14T15:23:49.197Z,24.80
2018-08-14T15:27:22.530Z,24.80
2018-08-14T15:30:55.780Z,24.80
2018-08-14T15:34:31.527Z,24.60
2018-08-14T15:38:04.842Z,24.50
2018-08-14T15:41:38.311Z,24.40
2018-08-14T15:45:11.546Z,24.30
2018-08-14T15:48:44.797Z,24.20
2018-08-14T15:52:18.051Z,24.20
2018-08-14T15:55:52.088Z,24.30
2018-08-14T15:59:25.342Z,24.30
2018-08-14T16:02:59.209Z,24.50
2018-08-14T16:06:32.468Z,24.90
2018-08-14T16:10:05.813Z,25.50
2018-08-14T16:13:39.065Z,25.60
2018-08-14T16:17:12.297Z,25.50
2018-08-14T16:20:50.730Z,25.10
2018-08-14T16:24:23.990Z,24.80
2018-08-14T16:27:57.246Z,24.60
2018-08-14T16:31:30.481Z,24.40
2018-08-14T16:35:03.741Z,24.30
2018-08-14T16:38:36.988Z,24.10
2018-08-14T16:42:10.240Z,24.00
2018-08-14T16:45:43.517Z,23.90
2018-08-14T16:49:16.749Z,23.80
2018-08-14T16:52:50.337Z,23.70
2018-08-14T16:56:23.606Z,23.70
2018-08-14T16:59:56.913Z,23.60
2018-08-14T17:03:30.223Z,23.60
2018-08-14T17:07:03.480Z,23.60
2018-08-14T17:10:36.901Z,23.40
2018-08-14T17:14:10.149Z,23.30
2018-08-14T17:17:43.425Z,23.30
2018-08-14T17:21:15.684Z,23.10
2018-08-14T17:24:48.932Z,23.10
2018-08-14T17:28:22.176Z,23.00
2018-08-14T17:31:55.472Z,22.90
2018-08-14T17:35:28.809Z,22.90
2018-08-14T17:39:02.157Z,23.00
2018-08-14T17:42:35.461Z,23.00
2018-08-14T17:46:08.785Z,23.00
2018-08-14T17:49:42.140Z,23.10
2018-08-14T17:53:15.427Z,23.00
2018-08-14T17:56:48.777Z,22.90
2018-08-14T18:00:24.674Z,22.80
2018-08-14T18:03:57.968Z,22.80
2018-08-14T18:07:31.212Z,22.70
2018-08-14T18:11:04.472Z,22.60
2018-08-14T18:14:55.973Z,22.50
2018-08-14T18:18:29.227Z,22.50
2018-08-14T18:22:02.484Z,22.50
2018-08-14T18:25:35.903Z,22.50
2018-08-14T18:29:09.165Z,22.50
2018-08-14T18:32:42.440Z,22.50
2018-08-14T18:36:16.343Z,22.60
2018-08-14T18:39:49.625Z,22.60
2018-08-14T18:43:25.278Z,22.70
2018-08-14T18:47:07.406Z,22.80
2018-08-14T18:50:41.026Z,22.80
2018-08-14T18:54:18.164Z,22.80
2018-08-14T18:57:51.484Z,22.90
2018-08-14T19:01:24.737Z,22.90
2018-08-14T19:04:58.380Z,22.90
2018-08-14T19:08:31.750Z,22.80
2018-08-14T19:12:05.140Z,22.70
2018-08-14T19:15:39.204Z,22.50
2018-08-14T19:19:12.475Z,22.50
2018-08-14T19:22:45.736Z,22.30
2018-08-14T19:26:19.059Z,22.20
2018-08-14T19:29:52.306Z,22.10
2018-08-14T19:33:25.601Z,22.00
2018-08-14T19:37:17.496Z,22.00
2018-08-14T19:41:05.619Z,21.90
2018-08-14T19:44:40.660Z,21.90
2018-08-14T19:48:14.216Z,21.80
2018-08-14T19:51:47.875Z,21.70
2018-08-14T19:55:21.755Z,21.60
2018-08-14T19:59:07.249Z,21.60
2018-08-14T20:02:42.035Z,21.50
2018-08-14T20:06:15.682Z,21.40
2018-08-14T20:09:49.753Z,21.30
2018-08-14T20:13:23.149Z,21.30
2018-08-14T20:16:56.487Z,21.20
2018-08-14T20:20:29.941Z,21.10
2018-08-14T20:24:03.338Z,21.00
2018-08-14T20:27:36.926Z,20.90
2018-08-14T20:31:10.313Z,20.90
2018-08-14T20:34:44.254Z,20.80
2018-08-14T20:38:17.640Z,20.70
2018-08-14T20:41:50.976Z,20.70
2018-08-14T20:45:24.336Z,20.60
2018-08-14T20:48:57.687Z,20.60
2018-08-14T20:52:31.177Z,20.50
2018-08-14T20:56:04.706Z,20.50
2018-08-14T20:59:38.036Z,20.50
2018-08-14T21:03:11.430Z,20.50
2018-08-14T21:06:44.741Z,20.40
2018-08-14T21:10:18.212Z,20.40
2018-08-14T21:13:51.552Z,20.40
2018-08-14T21:17:24.876Z,20.30
2018-08-14T21:20:58.266Z,20.30
2018-08-14T21:24:31.625Z,20.30
2018-08-14T21:28:05.014Z,20.20
2018-08-14T21:31:38.378Z,20.20
2018-08-14T21:35:14.868Z,20.20
2018-08-14T21:38:48.193Z,20.10
2018-08-14T21:42:21.564Z,20.00
2018-08-14T21:50:27.430Z,20.00
2018-08-14T21:54:01.963Z,20.00
2018-08-14T21:57:35.506Z,19.90
2018-08-14T22:01:10.388Z,19.90
2018-08-14T22:04:43.885Z,19.90
2018-08-14T22:08:17.429Z,19.90
2018-08-14T22:11:50.896Z,19.90
2018-08-14T22:15:24.349Z,19.90
2018-08-14T22:18:57.898Z,19.80
2018-08-14T22:22:31.428Z,19.70
2018-08-14T22:26:04.747Z,19.70
2018-08-14T22:29:38.121Z,19.60
2018-08-14T22:33:11.505Z,19.60
2018-08-14T22:36:44.801Z,19.60
2018-08-14T22:40:18.142Z,19.50
2018-08-14T22:43:51.516Z,19.60
2018-08-14T22:47:25.210Z,19.50
2018-08-14T22:50:58.558Z,19.50
2018-08-14T22:54:31.948Z,19.50
2018-08-14T22:58:05.364Z,19.40
2018-08-14T23:01:39.183Z,19.50
2018-08-14T23:05:14.804Z,19.50
2018-08-14T23:08:49.204Z,19.50
2018-08-14T23:12:22.557Z,19.50
2018-08-14T23:16:01.607Z,19.50
2018-08-14T23:19:35.359Z,19.50
2018-08-14T23:23:08.826Z,19.50
2018-08-14T23:26:42.376Z,19.50
2018-08-14T23:30:16.499Z,19.50
2018-08-14T23:33:50.160Z,19.50
2018-08-14T23:37:23.822Z,19.70
2018-08-14T23:40:57.525Z,19.70
2018-08-14T23:44:30.922Z,19.80
2018-08-14T23:48:04.525Z,19.80
2018-08-14T23:51:37.901Z,19.80
2018-08-14T23:55:11.785Z,19.80
2018-08-14T23:58:45.147Z,19.70
